Time,TemperatureF,DewpointF,PressureIn,WindDirection,WindDirectionDegrees,WindSpeedMPH,WindSpeedGustMPH,Humidity,HourlyPrecipIn,Conditions,Clouds,dailyrainin,SoftwareType,DateUTC
2013-08-12 00:01:00,68.4,68.4,30.05,WNW,292,0.0,0.0,100,0.31,RA,,0.00,WeatherDisplay:10.37,2013-08-12 04:01:00,
2013-08-12 00:02:00,68.4,68.4,30.05,WNW,292,1.4,3.6,100,0.31,RA,,0.00,WeatherDisplay:10.37,2013-08-12 04:02:00,
2013-08-12 00:03:00,68.4,68.4,30.05,WNW,292,2.5,3.5,100,0.31,RA,,0.00,WeatherDisplay:10.37,2013-08-12 04:03:00,
2013-08-12 00:04:00,68.4,68.4,30.05,WNW,292,1.2,3.5,100,0.31,RA,,0.00,WeatherDisplay:10.37,2013-08-12 04:04:00,
2013-08-12 00:06:00,68.4,68.4,30.05,WNW,292,0.0,2.3,100,0.31,RA,,0.00,WeatherDisplay:10.37,2013-08-12 04:06:00,
2013-08-12 00:09:00,68.4,68.4,30.05,WNW,292,0.1,2.3,100,0.31,RA,,0.00,WeatherDisplay:10.37,2013-08-12 04:09:00,
2013-08-12 00:14:00,68.4,68.4,30.05,WNW,292,0.0,0.0,100,0.31,RA,,0.00,WeatherDisplay:10.37,2013-08-12 04:14:00,
2013-08-12 00:20:00,68.4,68.4,30.04,WNW,292,0.0,0.0,100,0.31,BKN,,0.00,WeatherDisplay:10.37,2013-08-12 04:20:00,
2013-08-12 00:25:00,68.2,68.2,30.04,WNW,292,0.0,0.0,100,0.00,BKN,BKN,0.00,WeatherDisplay:10.37,2013-08-12 04:25:00,
2013-08-12 00:30:00,68.2,68.2,30.05,WNW,292,0.0,0.0,100,0.30,BKN,,0.00,WeatherDisplay:10.37,2013-08-12 04:30:00,
2013-08-12 00:35:00,68.2,68.2,30.05,WNW,292,0.0,0.0,100,0.30,BKN,,0.00,WeatherDisplay:10.37,2013-08-12 04:35:00,
2013-08-12 00:40:00,68.2,68.2,30.05,WNW,292,0.0,0.0,100,0.29,BKN,,0.00,WeatherDisplay:10.37,2013-08-12 04:40:00,
2013-08-12 00:46:00,68.0,68.0,30.05,WNW,292,0.0,0.0,100,0.28,BKN,,0.00,WeatherDisplay:10.37,2013-08-12 04:46:00,
2013-08-12 00:51:00,68.0,68.0,30.05,WNW,292,0.0,0.0,100,0.23,BKN,,0.00,WeatherDisplay:10.37,2013-08-12 04:51:00,
2013-08-12 00:56:00,68.0,68.0,30.05,WNW,292,0.0,0.0,100,0.07,BKN,,0.00,WeatherDisplay:10.37,2013-08-12 04:56:00,
2013-08-12 01:01:00,67.8,67.8,30.05,WNW,292,0.0,0.0,100,0.02,BKN,,0.00,WeatherDisplay:10.37,2013-08-12 05:01:00,
2013-08-12 01:06:00,67.6,67.6,30.05,WNW,292,0.0,0.0,100,0.01,BKN,,0.00,WeatherDisplay:10.37,2013-08-12 05:06:00,
2013-08-12 01:11:00,67.3,67.3,30.05,WNW,292,0.0,0.0,100,0.00,BKN,,0.00,WeatherDisplay:10.37,2013-08-12 05:11:00,
2013-08-12 01:16:00,67.3,67.3,30.04,WNW,292,0.0,0.0,100,0.00,BKN,,0.00,WeatherDisplay:10.37,2013-08-12 05:16:00,
2013-08-12 01:21:00,67.3,67.3,30.04,WNW,292,0.0,0.0,100,0.00,BKN,,0.00,WeatherDisplay:10.37,2013-08-12 05:21:00,
2013-08-12 01:26:00,67.3,67.3,30.04,WNW,292,0.0,0.0,100,0.00,BKN,,0.00,WeatherDisplay:10.37,2013-08-12 05:26:00,
2013-08-12 01:31:00,67.3,67.3,30.04,WNW,292,0.0,0.0,100,0.00,BKN,,0.00,WeatherDisplay:10.37,2013-08-12 05:31:00,
2013-08-12 01:36:00,67.3,67.3,30.04,WNW,292,0.0,0.0,100,0.00,BKN,,0.00,WeatherDisplay:10.37,2013-08-12 05:36:00,
2013-08-12 01:41:00,67.3,67.3,30.05,WNW,292,0.0,0.0,100,0.00,BKN,,0.00,WeatherDisplay:10.37,2013-08-12 05:41:00,
2013-08-12 01:46:00,67.3,67.3,30.05,WNW,292,0.1,3.5,100,0.00,BKN,,0.00,WeatherDisplay:10.37,2013-08-12 05:46:00,
2013-08-12 01:51:00,67.6,67.6,30.05,WNW,292,3.6,4.6,100,0.00,BKN,,0.00,WeatherDisplay:10.37,2013-08-12 05:51:00,
2013-08-12 01:56:00,67.8,67.8,30.05,WNW,292,0.0,0.0,100,0.00,BKN,,0.00,WeatherDisplay:10.37,2013-08-12 05:56:00,
2013-08-12 02:01:00,67.8,67.8,30.05,WNW,292,2.4,5.8,100,0.00,BKN,,0.00,WeatherDisplay:10.37,2013-08-12 06:01:00,
2013-08-12 02:06:00,67.8,67.8,30.05,WNW,292,0.0,0.0,100,0.00,BKN,,0.00,WeatherDisplay:10.37,2013-08-12 06:06:00,
2013-08-12 02:11:00,67.8,67.8,30.05,WNW,292,0.0,0.0,100,0.00,BKN,,0.00,WeatherDisplay:10.37,2013-08-12 06:11:00,
2013-08-12 02:16:00,67.8,67.8,30.05,WNW,292,0.0,0.0,100,0.00,BKN,,0.00,WeatherDisplay:10.37,2013-08-12 06:16:00,
2013-08-12 02:21:00,67.8,67.8,30.05,WNW,292,0.0,0.0,100,0.00,BKN,,0.00,WeatherDisplay:10.37,2013-08-12 06:21:00,
2013-08-12 02:26:00,67.8,67.8,30.05,WNW,292,0.0,0.0,100,0.00,BKN,,0.00,WeatherDisplay:10.37,2013-08-12 06:26:00,
2013-08-12 02:31:00,67.8,67.8,30.05,WNW,292,0.0,0.0,100,0.00,BKN,,0.00,WeatherDisplay:10.37,2013-08-12 06:31:00,
2013-08-12 02:36:00,67.8,67.8,30.05,WNW,292,0.0,0.0,100,0.00,BKN,,0.00,WeatherDisplay:10.37,2013-08-12 06:36:00,
2013-08-12 02:41:00,67.8,67.8,30.05,WNW,292,0.0,0.0,100,0.00,BKN,,0.00,WeatherDisplay:10.37,2013-08-12 06:41:00,
2013-08-12 02:47:00,67.8,67.8,30.05,WNW,292,0.0,0.0,100,0.00,BKN,,0.00,WeatherDisplay:10.37,2013-08-12 06:47:00,
2013-08-12 02:52:00,67.8,67.8,30.05,WNW,292,0.0,0.0,100,0.00,BKN,,0.00,WeatherDisplay:10.37,2013-08-12 06:52:00,
2013-08-12 02:57:00,67.8,67.8,30.05,WNW,292,0.0,0.0,100,0.00,BKN,,0.00,WeatherDisplay:10.37,2013-08-12 06:57:00,
2013-08-12 03:02:00,67.8,67.8,30.05,WNW,292,2.0,2.7,100,0.00,BKN,,0.00,WeatherDisplay:10.37,2013-08-12 07:02:00,
2013-08-12 03:07:00,67.6,67.6,30.05,WNW,292,1.8,2.3,100,0.00,BKN,,0.00,WeatherDisplay:10.37,2013-08-12 07:07:00,
2013-08-12 03:12:00,67.6,67.6,30.05,WNW,292,0.0,2.3,100,0.00,BKN,,0.00,WeatherDisplay:10.37,2013-08-12 07:12:00,
2013-08-12 03:17:00,67.5,67.5,30.05,WNW,292,3.2,4.6,100,0.00,BKN,,0.00,WeatherDisplay:10.37,2013-08-12 07:17:00,
2013-08-12 03:22:00,67.5,67.5,30.05,WNW,292,3.4,4.6,100,0.00,BKN,,0.00,WeatherDisplay:10.37,2013-08-12 07:22:00,
2013-08-12 03:27:00,67.3,67.3,30.05,WNW,292,1.4,4.6,100,0.00,BKN,,0.00,WeatherDisplay:10.37,2013-08-12 07:27:00,
2013-08-12 03:32:00,67.3,67.3,30.05,WNW,292,0.0,2.3,100,0.00,BKN,,0.00,WeatherDisplay:10.37,2013-08-12 07:32:00,
2013-08-12 03:37:00,67.3,67.3,30.05,WNW,292,0.0,0.0,100,0.00,BKN,,0.00,WeatherDisplay:10.37,2013-08-12 07:37:00,
2013-08-12 03:42:00,67.3,67.3,30.05,WNW,292,0.0,0.0,100,0.00,BKN,,0.00,WeatherDisplay:10.37,2013-08-12 07:42:00,
2013-08-12 03:47:00,67.3,67.3,30.05,WNW,292,0.0,0.0,100,0.00,BKN,,0.00,WeatherDisplay:10.37,2013-08-12 07:47:00,
2013-08-12 03:52:00,67.1,67.1,30.05,WNW,292,0.0,0.0,100,0.00,BKN,,0.00,WeatherDisplay:10.37,2013-08-12 07:52:00,
2013-08-12 03:57:00,67.1,67.1,30.05,WNW,292,0.0,0.0,100,0.00,BKN,,0.00,WeatherDisplay:10.37,2013-08-12 07:57:00,
2013-08-12 04:02:00,66.9,66.9,30.05,WNW,292,0.0,0.0,100,0.00,BKN,,0.00,WeatherDisplay:10.37,2013-08-12 08:02:00,
2013-08-12 04:07:00,66.7,66.7,30.05,WNW,292,0.0,0.0,100,0.00,BKN,,0.00,WeatherDisplay:10.37,2013-08-12 08:07:00,
2013-08-12 04:12:00,66.7,66.7,30.05,WNW,292,0.0,0.0,100,0.00,BKN,,0.00,WeatherDisplay:10.37,2013-08-12 08:12:00,
2013-08-12 04:17:00,66.6,66.6,30.05,WNW,292,0.0,0.0,100,0.00,BKN,,0.00,WeatherDisplay:10.37,2013-08-12 08:17:00,
2013-08-12 04:22:00,66.6,66.6,30.05,WNW,292,0.0,0.0,100,0.00,BKN,,0.00,WeatherDisplay:10.37,2013-08-12 08:22:00,
2013-08-12 04:27:00,66.2,66.2,30.05,WNW,292,4.9,6.1,100,0.00,BKN,,0.00,WeatherDisplay:10.37,2013-08-12 08:27:00,
2013-08-12 04:32:00,66.2,66.2,30.05,WNW,292,0.0,0.0,100,0.00,BKN,,0.00,WeatherDisplay:10.37,2013-08-12 08:32:00,
2013-08-12 04:37:00,66.2,66.2,30.05,WNW,292,0.0,0.0,100,0.00,BKN,,0.00,WeatherDisplay:10.37,2013-08-12 08:37:00,
2013-08-12 04:42:00,66.2,66.2,30.05,WNW,292,0.0,0.0,100,0.00,BKN,,0.00,WeatherDisplay:10.37,2013-08-12 08:42:00,
2013-08-12 04:47:00,66.2,66.2,30.05,WNW,292,0.0,0.0,100,0.00,BKN,,0.00,WeatherDisplay:10.37,2013-08-12 08:47:00,
2013-08-12 04:52:00,66.2,66.2,30.05,WNW,292,0.0,2.3,100,0.00,BKN,,0.00,WeatherDisplay:10.37,2013-08-12 08:52:00,
2013-08-12 04:57:00,66.2,66.2,30.05,WNW,292,0.0,3.5,100,0.00,BKN,,0.00,WeatherDisplay:10.37,2013-08-12 08:57:00,
2013-08-12 05:02:00,66.2,66.2,30.05,WNW,292,1.9,2.7,100,0.00,BKN,,0.00,WeatherDisplay:10.37,2013-08-12 09:02:00,
2013-08-12 05:07:00,66.2,66.2,30.04,WNW,292,0.0,0.0,100,0.00,BKN,,0.00,WeatherDisplay:10.37,2013-08-12 09:07:00,
2013-08-12 05:12:00,66.2,66.2,30.04,WNW,292,1.6,3.5,100,0.00,BKN,,0.00,WeatherDisplay:10.37,2013-08-12 09:12:00,
2013-08-12 05:17:00,66.2,66.2,30.05,WNW,292,2.4,2.7,100,0.00,BKN,,0.00,WeatherDisplay:10.37,2013-08-12 09:17:00,
2013-08-12 05:22:00,66.0,66.0,30.05,WNW,292,2.1,2.7,100,0.00,BKN,,0.00,WeatherDisplay:10.37,2013-08-12 09:22:00,
2013-08-12 05:27:00,66.0,66.0,30.05,WNW,292,0.0,2.3,100,0.00,BKN,,0.00,WeatherDisplay:10.37,2013-08-12 09:27:00,
2013-08-12 05:32:00,66.2,66.2,30.05,WNW,292,1.3,2.7,100,0.00,BKN,,0.00,WeatherDisplay:10.37,2013-08-12 09:32:00,
2013-08-12 05:37:00,66.2,66.2,30.05,WNW,292,0.0,0.0,100,0.00,BKN,,0.00,WeatherDisplay:10.37,2013-08-12 09:37:00,
2013-08-12 05:42:00,66.2,66.2,30.05,WNW,292,0.0,2.3,100,0.00,BKN,,0.00,WeatherDisplay:10.37,2013-08-12 09:42:00,
2013-08-12 05:47:00,66.4,66.4,30.05,WNW,292,0.0,0.0,100,0.00,BKN,,0.00,WeatherDisplay:10.37,2013-08-12 09:47:00,
2013-08-12 05:52:00,66.4,66.4,30.05,WNW,292,0.9,2.7,100,0.00,BKN,,0.00,WeatherDisplay:10.37,2013-08-12 09:52:00,
2013-08-12 05:57:00,66.4,66.4,30.05,WNW,292,0.0,2.3,100,0.00,BKN,,0.00,WeatherDisplay:10.37,2013-08-12 09:57:00,
2013-08-12 06:02:00,66.4,66.4,30.05,WNW,292,0.0,0.0,100,0.00,BKN,,0.00,WeatherDisplay:10.37,2013-08-12 10:02:00,
2013-08-12 06:07:00,66.4,66.4,30.05,WNW,292,0.0,0.0,100,0.00,BKN,,0.00,WeatherDisplay:10.37,2013-08-12 10:07:00,
2013-08-12 06:12:00,66.4,66.4,30.05,WNW,292,1.8,2.7,100,0.00,BKN,,0.00,WeatherDisplay:10.37,2013-08-12 10:12:00,
2013-08-12 06:18:00,66.4,66.4,30.06,WNW,292,0.0,0.0,100,0.00,BKN,,0.00,WeatherDisplay:10.37,2013-08-12 10:18:00,
2013-08-12 06:23:00,66.4,66.4,30.06,WNW,292,0.4,2.3,100,0.00,BKN,,0.00,WeatherDisplay:10.37,2013-08-12 10:23:00,
2013-08-12 06:28:00,66.4,66.4,30.06,WNW,292,0.0,0.0,100,0.00,BKN,,0.00,WeatherDisplay:10.37,2013-08-12 10:28:00,
2013-08-12 06:33:00,66.4,66.4,30.06,WNW,292,0.3,1.9,100,0.00,OVC,,0.00,WeatherDisplay:10.37,2013-08-12 10:33:00,
2013-08-12 06:38:00,66.4,66.4,30.06,WNW,292,0.0,0.0,100,0.00,OVC,,0.00,WeatherDisplay:10.37,2013-08-12 10:38:00,
2013-08-12 06:43:00,66.4,66.4,30.06,WNW,292,0.0,0.0,100,0.00,OVC,,0.00,WeatherDisplay:10.37,2013-08-12 10:43:00,
2013-08-12 06:48:00,66.4,66.4,30.06,WNW,292,1.2,3.6,100,0.00,OVC,,0.00,WeatherDisplay:10.37,2013-08-12 10:48:00,
2013-08-12 06:53:00,66.4,66.4,30.06,WNW,292,0.1,2.3,100,0.00,OVC,,0.00,WeatherDisplay:10.37,2013-08-12 10:53:00,
2013-08-12 06:58:00,66.4,66.4,30.06,WNW,292,0.0,0.0,100,0.00,OVC,,0.00,WeatherDisplay:10.37,2013-08-12 10:58:00,
2013-08-12 07:03:00,66.4,66.4,30.06,SSW,202,4.1,5.8,100,0.00,OVC,,0.00,WeatherDisplay:10.37,2013-08-12 11:03:00,
2013-08-12 07:08:00,66.4,66.4,30.06,SSW,202,3.1,4.6,100,0.00,OVC,,0.00,WeatherDisplay:10.37,2013-08-12 11:08:00,
2013-08-12 07:13:00,66.4,66.4,30.06,SSW,202,0.0,0.0,100,0.00,OVC,,0.00,WeatherDisplay:10.37,2013-08-12 11:13:00,
2013-08-12 07:18:00,66.4,66.4,30.07,SSW,202,1.5,3.6,100,0.00,OVC,,0.00,WeatherDisplay:10.37,2013-08-12 11:18:00,
2013-08-12 07:23:00,66.4,66.4,30.07,SSW,202,1.1,3.5,100,0.00,OVC,,0.00,WeatherDisplay:10.37,2013-08-12 11:23:00,
2013-08-12 07:28:00,66.4,66.4,30.07,SSW,202,0.0,0.0,100,0.00,OVC,,0.00,WeatherDisplay:10.37,2013-08-12 11:28:00,
2013-08-12 07:33:00,66.6,66.6,30.07,SSW,202,0.0,0.0,100,0.00,OVC,,0.00,WeatherDisplay:10.37,2013-08-12 11:33:00,
2013-08-12 07:38:00,66.6,66.6,30.07,SSW,202,0.0,0.0,100,0.00,OVC,,0.00,WeatherDisplay:10.37,2013-08-12 11:38:00,
2013-08-12 07:43:00,66.7,66.7,30.07,SSW,202,0.0,0.0,100,0.00,OVC,,0.00,WeatherDisplay:10.37,2013-08-12 11:43:00,
2013-08-12 07:48:00,66.7,66.7,30.07,SSW,202,0.0,2.3,100,0.00,OVC,,0.00,WeatherDisplay:10.37,2013-08-12 11:48:00,
2013-08-12 07:53:00,66.7,66.7,30.06,SSW,202,0.8,2.3,100,0.00,OVC,,0.00,WeatherDisplay:10.37,2013-08-12 11:53:00,
2013-08-12 07:58:00,66.9,66.9,30.06,SSW,202,0.0,2.3,100,0.00,OVC,,0.00,WeatherDisplay:10.37,2013-08-12 11:58:00,
2013-08-12 08:03:00,67.1,67.1,30.06,SSW,202,1.7,3.6,100,0.00,OVC,,0.00,WeatherDisplay:10.37,2013-08-12 12:03:00,
2013-08-12 08:08:00,67.1,67.1,30.07,SSW,202,2.4,3.6,100,0.00,OVC,,0.00,WeatherDisplay:10.37,2013-08-12 12:08:00,
2013-08-12 08:13:00,67.3,67.3,30.07,SSW,202,0.0,2.3,100,0.00,OVC,,0.00,WeatherDisplay:10.37,2013-08-12 12:13:00,
2013-08-12 08:18:00,67.6,67.6,30.06,SSW,202,0.0,0.0,100,0.00,OVC,,0.00,WeatherDisplay:10.37,2013-08-12 12:18:00,
2013-08-12 08:23:00,67.6,67.6,30.06,SSW,202,1.4,2.7,100,0.00,OVC,,0.00,WeatherDisplay:10.37,2013-08-12 12:23:00,
2013-08-12 08:28:00,67.8,67.8,30.06,SSW,202,3.4,6.1,100,0.00,OVC,,0.00,WeatherDisplay:10.37,2013-08-12 12:28:00,
2013-08-12 08:33:00,68.4,68.4,30.06,SSW,202,3.4,4.6,100,0.00,OVC,,0.00,WeatherDisplay:10.37,2013-08-12 12:33:00,
2013-08-12 08:38:00,68.7,68.4,30.06,SSW,202,3.2,4.6,99,0.00,OVC,,0.00,WeatherDisplay:10.37,2013-08-12 12:38:00,
2013-08-12 08:43:00,69.4,68.8,30.06,SSW,202,0.5,3.5,98,0.00,OVC,,0.00,WeatherDisplay:10.37,2013-08-12 12:43:00,
2013-08-12 08:48:00,70.0,69.1,30.06,SSW,202,4.0,5.8,97,0.00,OVC,,0.00,WeatherDisplay:10.37,2013-08-12 12:48:00,
2013-08-12 08:53:00,70.2,69.0,30.06,SSW,202,3.4,3.6,96,0.00,OVC,,0.00,WeatherDisplay:10.37,2013-08-12 12:53:00,
2013-08-12 08:58:00,70.2,68.7,30.06,SSW,202,0.4,3.6,95,0.00,OVC,,0.00,WeatherDisplay:10.37,2013-08-12 12:58:00,
2013-08-12 09:03:00,70.7,69.2,30.06,SSW,202,0.0,0.0,95,0.00,BKN,,0.00,WeatherDisplay:10.37,2013-08-12 13:03:00,
2013-08-12 09:08:00,70.5,68.7,30.06,SSW,202,1.8,2.7,94,0.00,BKN,,0.00,WeatherDisplay:10.37,2013-08-12 13:08:00,
2013-08-12 09:13:00,71.1,69.0,30.06,SSW,202,3.2,3.6,93,0.00,BKN,,0.00,WeatherDisplay:10.37,2013-08-12 13:13:00,
2013-08-12 09:18:00,71.2,69.1,30.06,SSW,202,1.7,3.5,93,0.00,BKN,,0.00,WeatherDisplay:10.37,2013-08-12 13:18:00,
2013-08-12 09:23:00,71.8,69.3,30.06,SSW,202,0.0,0.0,92,0.00,BKN,,0.00,WeatherDisplay:10.37,2013-08-12 13:23:00,
2013-08-12 09:28:00,72.9,69.8,30.06,SSW,202,0.0,2.3,90,0.00,BKN,,0.00,WeatherDisplay:10.37,2013-08-12 13:28:00,
2013-08-12 09:33:00,72.9,69.1,30.06,SSW,202,2.1,3.5,88,0.00,BKN,,0.00,WeatherDisplay:10.37,2013-08-12 13:33:00,
2013-08-12 09:38:00,73.8,69.7,30.06,SSW,202,0.0,2.3,87,0.00,BKN,,0.00,WeatherDisplay:10.37,2013-08-12 13:38:00,
2013-08-12 09:43:00,73.6,69.8,30.06,SSW,202,0.0,0.0,88,0.00,BKN,,0.00,WeatherDisplay:10.37,2013-08-12 13:43:00,
2013-08-12 09:48:00,73.6,69.5,30.06,SSW,202,2.7,4.6,87,0.00,BKN,,0.00,WeatherDisplay:10.37,2013-08-12 13:48:00,
2013-08-12 09:53:00,73.6,69.2,30.06,SSW,202,4.7,5.8,86,0.00,BKN,,0.00,WeatherDisplay:10.37,2013-08-12 13:53:00,
2013-08-12 09:58:00,73.2,69.1,30.06,SSW,202,3.8,4.6,87,0.00,BKN,,0.00,WeatherDisplay:10.37,2013-08-12 13:58:00,
2013-08-12 10:03:00,73.6,69.5,30.06,SSW,202,4.2,5.8,87,0.00,BKN,,0.00,WeatherDisplay:10.37,2013-08-12 14:03:00,
2013-08-12 10:08:00,73.0,68.9,30.06,SSW,202,4.4,6.1,87,0.00,BKN,,0.00,WeatherDisplay:10.37,2013-08-12 14:08:00,
2013-08-12 10:13:00,72.1,68.7,30.06,SSW,202,3.1,4.6,89,0.00,BKN,,0.00,WeatherDisplay:10.37,2013-08-12 14:13:00,
2013-08-12 10:18:00,71.8,68.7,30.06,WNW,292,8.0,9.2,90,0.00,BKN,,0.00,WeatherDisplay:10.37,2013-08-12 14:18:00,
2013-08-12 10:23:00,71.4,68.6,30.06,WNW,292,4.1,7.0,91,0.00,BKN,,0.00,WeatherDisplay:10.37,2013-08-12 14:23:00,
2013-08-12 10:28:00,70.7,68.6,30.06,WNW,292,2.8,3.6,93,0.00,BKN,,0.00,WeatherDisplay:10.37,2013-08-12 14:28:00,
2013-08-12 10:33:00,71.6,68.5,30.06,WNW,292,2.1,3.5,90,0.00,SCT,,0.00,WeatherDisplay:10.37,2013-08-12 14:33:00,
2013-08-12 10:38:00,72.7,67.6,30.06,WNW,292,4.0,5.8,84,0.00,SCT,,0.00,WeatherDisplay:10.37,2013-08-12 14:38:00,
2013-08-12 10:43:00,73.4,68.6,30.06,WNW,292,2.0,3.6,85,0.00,SCT,,0.00,WeatherDisplay:10.37,2013-08-12 14:43:00,
2013-08-12 10:48:00,73.9,69.1,30.06,WNW,292,3.2,4.6,85,0.00,SCT,,0.00,WeatherDisplay:10.37,2013-08-12 14:48:00,
2013-08-12 10:53:00,73.0,68.6,30.06,WNW,292,3.6,4.6,86,0.00,SCT,,0.00,WeatherDisplay:10.37,2013-08-12 14:53:00,
2013-08-12 10:58:00,73.2,68.8,30.06,WNW,292,3.2,4.4,86,0.00,SCT,,0.00,WeatherDisplay:10.37,2013-08-12 14:58:00,
2013-08-12 11:03:00,74.3,68.8,30.06,WNW,292,4.3,5.8,83,0.00,BKN,,0.00,WeatherDisplay:10.37,2013-08-12 15:03:00,
2013-08-12 11:08:00,75.6,69.4,30.05,WNW,292,2.2,5.8,81,0.00,BKN,,0.00,WeatherDisplay:10.37,2013-08-12 15:08:00,
2013-08-12 11:13:00,74.5,69.0,30.05,WNW,292,5.8,7.0,83,0.00,BKN,,0.00,WeatherDisplay:10.37,2013-08-12 15:13:00,
2013-08-12 11:18:00,75.2,68.6,30.06,ESE,112,3.7,6.1,80,0.00,BKN,,0.00,WeatherDisplay:10.37,2013-08-12 15:18:00,
2013-08-12 11:24:00,75.6,68.3,30.06,ESE,112,3.9,5.3,78,0.00,BKN,,0.00,WeatherDisplay:10.37,2013-08-12 15:24:00,
2013-08-12 11:29:00,75.9,68.9,30.06,ESE,112,3.7,5.8,79,0.00,BKN,,0.00,WeatherDisplay:10.37,2013-08-12 15:29:00,
2013-08-12 11:34:00,74.7,68.1,30.06,WNW,292,7.0,9.2,80,0.00,BKN,,0.00,WeatherDisplay:10.37,2013-08-12 15:34:00,
2013-08-12 11:39:00,74.7,67.4,30.06,WNW,292,2.6,4.6,78,0.00,BKN,,0.00,WeatherDisplay:10.37,2013-08-12 15:39:00,
2013-08-12 11:44:00,76.8,68.7,30.06,WNW,292,3.8,4.6,76,0.00,BKN,,0.00,WeatherDisplay:10.37,2013-08-12 15:44:00,
2013-08-12 11:49:00,75.2,68.2,30.06,WSW,248,4.5,8.1,79,0.00,BKN,,0.00,WeatherDisplay:10.37,2013-08-12 15:49:00,
2013-08-12 11:54:00,75.7,68.0,30.06,WSW,248,2.2,8.1,77,0.00,BKN,,0.00,WeatherDisplay:10.37,2013-08-12 15:54:00,
2013-08-12 11:59:00,75.0,66.9,30.06,WSW,248,4.0,9.2,76,0.00,BKN,,0.00,WeatherDisplay:10.37,2013-08-12 15:59:00,
2013-08-12 12:04:00,75.7,67.6,30.05,WSW,248,3.2,6.9,76,0.00,BKN,,0.00,WeatherDisplay:10.37,2013-08-12 16:04:00,
2013-08-12 12:09:00,76.8,67.5,30.05,WSW,248,3.0,4.6,73,0.00,BKN,,0.00,WeatherDisplay:10.37,2013-08-12 16:09:00,
2013-08-12 12:14:00,77.2,67.9,30.05,WSW,248,6.9,9.2,73,0.00,BKN,,0.00,WeatherDisplay:10.37,2013-08-12 16:14:00,
2013-08-12 12:19:00,77.5,68.2,30.05,WNW,292,6.9,8.1,73,0.00,BKN,,0.00,WeatherDisplay:10.37,2013-08-12 16:19:00,
2013-08-12 12:24:00,76.1,67.2,30.05,West,270,7.2,9.5,74,0.00,BKN,,0.00,WeatherDisplay:10.37,2013-08-12 16:24:00,
2013-08-12 12:29:00,77.4,68.1,30.05,West,270,5.8,8.1,73,0.00,BKN,,0.00,WeatherDisplay:10.37,2013-08-12 16:29:00,
2013-08-12 12:34:00,77.5,67.4,30.05,West,270,3.9,5.8,71,0.00,BKN,,0.00,WeatherDisplay:10.37,2013-08-12 16:34:00,
2013-08-12 12:39:00,78.6,68.0,30.05,West,270,3.7,9.2,70,0.00,BKN,,0.00,WeatherDisplay:10.37,2013-08-12 16:39:00,
2013-08-12 12:44:00,78.4,66.5,30.05,West,270,5.6,9.2,67,0.00,BKN,,0.00,WeatherDisplay:10.37,2013-08-12 16:44:00,
2013-08-12 12:49:00,77.9,65.6,30.05,West,270,4.3,7.0,66,0.00,BKN,,0.00,WeatherDisplay:10.37,2013-08-12 16:49:00,
2013-08-12 12:54:00,77.7,65.0,30.04,South,180,4.9,9.2,65,0.00,BKN,,0.00,WeatherDisplay:10.37,2013-08-12 16:54:00,
2013-08-12 12:59:00,77.9,66.1,30.04,South,180,0.0,3.5,67,0.00,BKN,,0.00,WeatherDisplay:10.37,2013-08-12 16:59:00,
2013-08-12 13:04:00,78.4,64.8,30.04,South,180,3.1,6.9,63,0.00,BKN,,0.00,WeatherDisplay:10.37,2013-08-12 17:04:00,
2013-08-12 13:09:00,77.9,66.9,30.04,South,180,2.9,5.8,69,0.00,BKN,,0.00,WeatherDisplay:10.37,2013-08-12 17:09:00,
2013-08-12 13:14:00,78.8,65.1,30.04,South,180,2.5,9.2,63,0.00,BKN,,0.00,WeatherDisplay:10.37,2013-08-12 17:14:00,
2013-08-12 13:19:00,78.3,65.6,30.04,NW,315,4.9,8.1,65,0.00,BKN,,0.00,WeatherDisplay:10.37,2013-08-12 17:19:00,
2013-08-12 13:24:00,78.4,66.1,30.04,NNE,22,3.9,6.9,66,0.00,BKN,,0.00,WeatherDisplay:10.37,2013-08-12 17:24:00,
2013-08-12 13:29:00,77.4,66.0,30.03,NNE,22,5.3,7.0,68,0.00,BKN,,0.00,WeatherDisplay:10.37,2013-08-12 17:29:00,
2013-08-12 13:34:00,79.2,66.4,30.03,NNE,22,5.0,7.0,65,0.00,BKN,,0.00,WeatherDisplay:10.37,2013-08-12 17:34:00,
2013-08-12 13:39:00,79.0,65.8,30.03,NNE,22,2.0,5.8,64,0.00,BKN,,0.00,WeatherDisplay:10.37,2013-08-12 17:39:00,
2013-08-12 13:44:00,79.5,65.3,30.03,NW,315,6.5,9.2,62,0.00,BKN,,0.00,WeatherDisplay:10.37,2013-08-12 17:44:00,
2013-08-12 13:49:00,79.2,65.5,30.03,WSW,248,3.7,6.9,63,0.00,BKN,,0.00,WeatherDisplay:10.37,2013-08-12 17:49:00,
2013-08-12 13:54:00,78.8,66.0,30.03,WSW,248,3.4,9.2,65,0.00,BKN,,0.00,WeatherDisplay:10.37,2013-08-12 17:54:00,
2013-08-12 13:59:00,79.7,66.9,30.03,West,270,6.5,8.1,65,0.00,BKN,,0.00,WeatherDisplay:10.37,2013-08-12 17:59:00,
2013-08-12 14:04:00,78.6,64.5,30.02,WNW,292,2.7,4.6,62,0.00,BKN,,0.00,WeatherDisplay:10.37,2013-08-12 18:04:00,
2013-08-12 14:09:00,79.2,65.1,30.02,SSE,158,4.8,6.1,62,0.00,BKN,,0.00,WeatherDisplay:10.37,2013-08-12 18:09:00,
2013-08-12 14:14:00,79.2,66.0,30.02,SSE,158,3.9,5.8,64,0.00,BKN,,0.00,WeatherDisplay:10.37,2013-08-12 18:14:00,
2013-08-12 14:19:00,79.5,65.3,30.02,SSE,158,5.5,6.1,62,0.00,BKN,,0.00,WeatherDisplay:10.37,2013-08-12 18:19:00,
2013-08-12 14:24:00,79.2,66.0,30.02,NW,315,2.9,4.6,64,0.00,BKN,,0.00,WeatherDisplay:10.37,2013-08-12 18:24:00,
2013-08-12 14:29:00,79.2,65.5,30.02,NW,315,3.9,5.3,63,0.00,BKN,,0.00,WeatherDisplay:10.37,2013-08-12 18:29:00,
2013-08-12 14:35:00,79.6,65.4,30.02,South,171,5.0,7.0,62,0.00,BKN,BKN,0.00,WeatherDisplay:10.37,2013-08-12 18:35:00,
2013-08-12 14:40:00,80.5,65.8,30.02,SW,224,3.0,6.0,61,0.00,BKN,BKN,0.00,WeatherDisplay:10.37,2013-08-12 18:40:00,
2013-08-12 14:45:00,80.4,64.8,30.02,WNW,292,5.9,9.2,59,0.00,BKN,,0.00,WeatherDisplay:10.37,2013-08-12 18:45:00,
2013-08-12 14:50:00,80.6,66.4,30.02,SSE,158,4.2,5.8,62,0.00,BKN,,0.00,WeatherDisplay:10.37,2013-08-12 18:50:00,
2013-08-12 14:56:00,80.6,65.9,30.01,SSE,158,3.3,8.1,61,0.00,BKN,,0.00,WeatherDisplay:10.37,2013-08-12 18:56:00,
2013-08-12 15:01:00,81.0,66.3,30.01,ESE,112,5.3,7.0,61,0.00,BKN,,0.00,WeatherDisplay:10.37,2013-08-12 19:01:00,
2013-08-12 15:06:00,81.0,65.3,30.01,ESE,112,5.1,7.0,59,0.00,BKN,,0.00,WeatherDisplay:10.37,2013-08-12 19:06:00,
2013-08-12 15:11:00,81.0,65.8,30.01,SW,225,5.8,9.5,60,0.00,BKN,,0.00,WeatherDisplay:10.37,2013-08-12 19:11:00,
2013-08-12 15:16:00,80.8,65.6,30.01,SE,135,5.2,8.1,60,0.00,BKN,,0.00,WeatherDisplay:10.37,2013-08-12 19:16:00,
2013-08-12 15:21:00,81.3,65.6,30.01,West,270,6.1,8.1,59,0.00,BKN,,0.00,WeatherDisplay:10.37,2013-08-12 19:21:00,
2013-08-12 15:26:00,81.0,65.8,30.01,West,270,5.6,6.9,60,0.00,BKN,,0.00,WeatherDisplay:10.37,2013-08-12 19:26:00,
2013-08-12 15:31:00,80.2,66.5,30.00,West,270,2.9,10.4,63,0.00,BKN,,0.00,WeatherDisplay:10.37,2013-08-12 19:31:00,
2013-08-12 15:36:00,81.0,66.8,30.00,South,180,4.4,6.9,62,0.00,BKN,,0.00,WeatherDisplay:10.37,2013-08-12 19:36:00,
2013-08-12 15:41:00,81.3,67.0,30.00,South,180,4.4,8.1,62,0.00,BKN,,0.00,WeatherDisplay:10.37,2013-08-12 19:41:00,
2013-08-12 15:46:00,82.6,66.8,30.00,South,180,1.9,5.8,59,0.00,BKN,,0.00,WeatherDisplay:10.37,2013-08-12 19:46:00,
2013-08-12 15:51:00,81.5,67.2,30.00,South,180,3.9,5.8,62,0.00,BKN,,0.00,WeatherDisplay:10.37,2013-08-12 19:51:00,
2013-08-12 15:56:00,81.0,66.3,29.99,North,360,5.9,7.0,61,0.00,BKN,,0.00,WeatherDisplay:10.37,2013-08-12 19:56:00,
2013-08-12 16:01:00,79.7,65.5,29.99,West,270,3.2,5.8,62,0.00,BKN,,0.00,WeatherDisplay:10.37,2013-08-12 20:01:00,
2013-08-12 16:06:00,81.1,66.8,29.99,West,270,3.8,6.1,62,0.00,BKN,,0.00,WeatherDisplay:10.37,2013-08-12 20:06:00,
2013-08-12 16:11:00,81.7,66.5,29.99,West,270,3.3,5.8,60,0.00,BKN,,0.00,WeatherDisplay:10.37,2013-08-12 20:11:00,
2013-08-12 16:16:00,81.1,67.3,29.99,West,270,2.5,5.8,63,0.00,BKN,,0.00,WeatherDisplay:10.37,2013-08-12 20:16:00,
2013-08-12 16:21:00,81.9,66.6,29.98,West,270,4.3,6.1,60,0.00,BKN,,0.00,WeatherDisplay:10.37,2013-08-12 20:21:00,
2013-08-12 16:26:00,81.3,67.5,29.98,West,270,3.8,4.6,63,0.00,BKN,,0.00,WeatherDisplay:10.37,2013-08-12 20:26:00,
2013-08-12 16:31:00,80.4,66.2,29.98,West,270,2.8,4.6,62,0.00,BKN,,0.00,WeatherDisplay:10.37,2013-08-12 20:31:00,
2013-08-12 16:36:00,84.2,66.8,29.98,West,270,3.8,4.6,56,0.00,BKN,,0.00,WeatherDisplay:10.37,2013-08-12 20:36:00,
2013-08-12 16:41:00,83.5,68.2,29.98,West,270,3.2,5.8,60,0.00,BKN,,0.00,WeatherDisplay:10.37,2013-08-12 20:41:00,
2013-08-12 16:46:00,81.5,67.2,29.98,West,270,3.7,4.6,62,0.00,BKN,,0.00,WeatherDisplay:10.37,2013-08-12 20:46:00,
2013-08-12 16:51:00,81.7,66.9,29.98,West,270,1.4,4.6,61,0.00,BKN,,0.00,WeatherDisplay:10.37,2013-08-12 20:51:00,
2013-08-12 16:56:00,81.3,67.5,29.97,West,270,2.8,4.6,63,0.00,BKN,,0.00,WeatherDisplay:10.37,2013-08-12 20:56:00,
2013-08-12 17:01:00,81.5,66.8,29.97,West,270,4.0,5.8,61,0.00,SCT,,0.00,WeatherDisplay:10.37,2013-08-12 21:01:00,
2013-08-12 17:06:00,81.7,67.9,29.97,West,270,4.4,6.1,63,0.00,SCT,,0.00,WeatherDisplay:10.37,2013-08-12 21:06:00,
2013-08-12 17:11:00,82.0,68.2,29.97,SSW,202,3.4,6.9,63,0.00,SCT,,0.00,WeatherDisplay:10.37,2013-08-12 21:11:00,
2013-08-12 17:16:00,81.5,67.2,29.97,South,180,5.2,6.1,62,0.00,SCT,,0.00,WeatherDisplay:10.37,2013-08-12 21:16:00,
2013-08-12 17:21:00,81.5,66.8,29.97,South,180,4.8,6.1,61,0.00,SCT,,0.00,WeatherDisplay:10.37,2013-08-12 21:21:00,
2013-08-12 17:26:00,81.3,67.0,29.97,South,180,2.5,5.8,62,0.00,SCT,,0.00,WeatherDisplay:10.37,2013-08-12 21:26:00,
2013-08-12 17:31:00,81.5,67.2,29.97,South,180,4.3,9.2,62,0.00,SCT,,0.00,WeatherDisplay:10.37,2013-08-12 21:31:00,
2013-08-12 17:36:00,81.3,67.5,29.97,South,180,3.0,5.8,63,0.00,SCT,,0.00,WeatherDisplay:10.37,2013-08-12 21:36:00,
2013-08-12 17:41:00,81.3,68.0,29.96,South,180,1.8,4.6,64,0.00,SCT,,0.00,WeatherDisplay:10.37,2013-08-12 21:41:00,
2013-08-12 17:46:00,80.8,66.6,29.96,South,180,5.5,6.1,62,0.00,SCT,,0.00,WeatherDisplay:10.37,2013-08-12 21:46:00,
2013-08-12 17:51:00,81.0,66.8,29.96,South,180,4.4,6.1,62,0.00,SCT,,0.00,WeatherDisplay:10.37,2013-08-12 21:51:00,
2013-08-12 17:56:00,83.3,68.0,29.96,South,180,5.0,6.1,60,0.00,SCT,,0.00,WeatherDisplay:10.37,2013-08-12 21:56:00,
2013-08-12 18:01:00,83.5,67.7,29.96,South,180,4.4,6.1,59,0.00,SCT,,0.00,WeatherDisplay:10.37,2013-08-12 22:01:00,
2013-08-12 18:06:00,83.1,67.3,29.96,South,180,5.6,7.0,59,0.00,SCT,,0.00,WeatherDisplay:10.37,2013-08-12 22:06:00,
2013-08-12 18:11:00,82.2,67.4,29.96,South,180,2.5,5.8,61,0.00,SCT,,0.00,WeatherDisplay:10.37,2013-08-12 22:11:00,
2013-08-12 18:17:00,82.0,67.7,29.96,South,180,2.6,5.3,62,0.00,SCT,,0.00,WeatherDisplay:10.37,2013-08-12 22:17:00,
2013-08-12 18:22:00,81.7,67.4,29.96,South,180,2.7,5.8,62,0.00,SCT,,0.00,WeatherDisplay:10.37,2013-08-12 22:22:00,
2013-08-12 18:27:00,81.5,67.7,29.96,South,180,3.8,4.6,63,0.00,SCT,,0.00,WeatherDisplay:10.37,2013-08-12 22:27:00,
2013-08-12 18:32:00,81.1,67.8,29.95,South,180,1.9,4.6,64,0.00,SCT,,0.00,WeatherDisplay:10.37,2013-08-12 22:32:00,
2013-08-12 18:37:00,81.0,67.7,29.95,South,180,3.2,5.8,64,0.00,SCT,,0.00,WeatherDisplay:10.37,2013-08-12 22:37:00,
2013-08-12 18:43:00,80.6,67.7,29.95,South,180,1.9,5.8,65,0.00,SCT,,0.00,WeatherDisplay:10.37,2013-08-12 22:43:00,
2013-08-12 18:48:00,80.2,66.9,29.95,South,180,4.4,6.9,64,0.00,SCT,,0.00,WeatherDisplay:10.37,2013-08-12 22:48:00,
2013-08-12 18:53:00,80.1,68.2,29.95,South,180,3.2,3.6,67,0.00,SCT,,0.00,WeatherDisplay:10.37,2013-08-12 22:53:00,
2013-08-12 18:58:00,79.7,67.3,29.95,South,180,2.3,2.7,66,0.00,SCT,,0.00,WeatherDisplay:10.37,2013-08-12 22:58:00,
2013-08-12 19:03:00,80.2,69.5,29.95,South,180,3.1,3.6,70,0.00,SCT,,0.00,WeatherDisplay:10.37,2013-08-12 23:03:00,
2013-08-12 19:08:00,79.9,68.0,29.95,South,180,2.6,3.5,67,0.00,SCT,,0.00,WeatherDisplay:10.37,2013-08-12 23:08:00,
2013-08-12 19:13:00,79.7,68.6,29.95,South,180,1.4,3.6,69,0.00,SCT,,0.00,WeatherDisplay:10.37,2013-08-12 23:13:00,
2013-08-12 19:18:00,79.2,67.7,29.94,South,180,3.6,3.6,68,0.00,SCT,,0.00,WeatherDisplay:10.37,2013-08-12 23:18:00,
2013-08-12 19:23:00,79.5,69.3,29.94,South,180,0.1,3.5,71,0.00,SCT,,0.00,WeatherDisplay:10.37,2013-08-12 23:23:00,
2013-08-12 19:28:00,79.2,70.2,29.94,South,180,0.0,0.0,74,0.00,SCT,,0.00,WeatherDisplay:10.37,2013-08-12 23:28:00,
2013-08-12 19:33:00,78.1,70.3,29.94,South,180,0.0,0.0,77,0.00,SCT,,0.00,WeatherDisplay:10.37,2013-08-12 23:33:00,
2013-08-12 19:38:00,77.4,70.0,29.94,South,180,0.0,2.3,78,0.00,SCT,,0.00,WeatherDisplay:10.37,2013-08-12 23:38:00,
2013-08-12 19:43:00,76.5,69.1,29.93,South,180,0.0,0.0,78,0.00,SCT,,0.00,WeatherDisplay:10.37,2013-08-12 23:43:00,
2013-08-12 19:48:00,75.6,69.4,29.93,South,180,0.0,0.0,81,0.00,SCT,,0.00,WeatherDisplay:10.37,2013-08-12 23:48:00,
2013-08-12 19:53:00,75.2,69.0,29.93,South,180,0.0,0.0,81,0.00,SCT,,0.00,WeatherDisplay:10.37,2013-08-12 23:53:00,
2013-08-12 19:58:00,74.7,68.8,29.93,South,180,0.0,0.0,82,0.00,SCT,,0.00,WeatherDisplay:10.37,2013-08-12 23:58:00,
2013-08-12 20:03:00,73.9,68.8,29.93,South,180,0.0,0.0,84,0.00,SKC,,0.00,WeatherDisplay:10.37,2013-08-13 00:03:00,
2013-08-12 20:08:00,72.9,68.5,29.93,South,180,0.0,0.0,86,0.00,SKC,,0.00,WeatherDisplay:10.37,2013-08-13 00:08:00,
2013-08-12 20:13:00,72.9,68.5,29.93,South,180,0.0,0.0,86,0.00,SKC,,0.00,WeatherDisplay:10.37,2013-08-13 00:13:00,
2013-08-12 20:18:00,72.3,68.5,29.93,South,180,0.0,0.0,88,0.00,SKC,,0.00,WeatherDisplay:10.37,2013-08-13 00:18:00,
2013-08-12 20:23:00,71.6,68.2,29.93,South,180,0.0,0.0,89,0.00,SKC,,0.00,WeatherDisplay:10.37,2013-08-13 00:23:00,
2013-08-12 20:28:00,71.4,68.3,29.93,South,180,0.0,0.0,90,0.00,SKC,,0.00,WeatherDisplay:10.37,2013-08-13 00:28:00,
2013-08-12 20:33:00,71.4,68.3,29.93,South,180,0.0,0.0,90,0.00,SKC,,0.00,WeatherDisplay:10.37,2013-08-13 00:33:00,
2013-08-12 20:38:00,71.2,67.8,29.93,South,180,0.0,0.0,89,0.00,SKC,,0.00,WeatherDisplay:10.37,2013-08-13 00:38:00,
2013-08-12 20:43:00,70.9,67.8,29.93,South,180,0.0,0.0,90,0.00,SKC,,0.00,WeatherDisplay:10.37,2013-08-13 00:43:00,
2013-08-12 20:48:00,70.3,67.9,29.93,South,180,0.0,0.0,92,0.00,SKC,,0.00,WeatherDisplay:10.37,2013-08-13 00:48:00,
2013-08-12 20:53:00,70.3,67.9,29.93,South,180,0.0,0.0,92,0.00,SKC,,0.00,WeatherDisplay:10.37,2013-08-13 00:53:00,
2013-08-12 20:58:00,70.3,67.9,29.93,South,180,0.0,0.0,92,0.00,SKC,,0.00,WeatherDisplay:10.37,2013-08-13 00:58:00,
2013-08-12 21:03:00,70.3,68.2,29.93,South,180,0.0,0.0,93,0.00,SKC,,0.00,WeatherDisplay:10.37,2013-08-13 01:03:00,
2013-08-12 21:08:00,70.2,68.1,29.93,South,180,0.0,0.0,93,0.00,SKC,,0.00,WeatherDisplay:10.37,2013-08-13 01:08:00,
2013-08-12 21:14:00,70.2,68.1,29.93,South,180,0.0,0.0,93,0.00,SKC,,0.00,WeatherDisplay:10.37,2013-08-13 01:14:00,
2013-08-12 21:19:00,70.0,68.2,29.94,South,180,0.0,0.0,94,0.00,SKC,,0.00,WeatherDisplay:10.37,2013-08-13 01:19:00,
2013-08-12 21:24:00,70.0,68.2,29.94,South,180,0.0,0.0,94,0.00,SKC,,0.00,WeatherDisplay:10.37,2013-08-13 01:24:00,
2013-08-12 21:29:00,69.8,68.3,29.94,South,180,0.0,0.0,95,0.00,SKC,,0.00,WeatherDisplay:10.37,2013-08-13 01:29:00,
2013-08-12 21:34:00,69.6,68.1,29.94,South,180,0.0,0.0,95,0.00,SKC,,0.00,WeatherDisplay:10.37,2013-08-13 01:34:00,
2013-08-12 21:39:00,69.6,68.1,29.94,South,180,0.0,0.0,95,0.00,SKC,,0.00,WeatherDisplay:10.37,2013-08-13 01:39:00,
2013-08-12 21:44:00,69.6,68.1,29.94,South,180,0.0,0.0,95,0.00,SKC,,0.00,WeatherDisplay:10.37,2013-08-13 01:44:00,
2013-08-12 21:49:00,69.4,68.2,29.94,South,180,0.0,0.0,96,0.00,SKC,,0.00,WeatherDisplay:10.37,2013-08-13 01:49:00,
2013-08-12 21:54:00,69.3,68.1,29.94,South,180,0.0,0.0,96,0.00,SKC,,0.00,WeatherDisplay:10.37,2013-08-13 01:54:00,
2013-08-12 21:59:00,69.3,68.1,29.94,South,180,0.0,0.0,96,0.00,SKC,,0.00,WeatherDisplay:10.37,2013-08-13 01:59:00,
2013-08-12 22:04:00,69.3,68.1,29.94,South,180,0.0,0.0,96,0.00,SKC,,0.00,WeatherDisplay:10.37,2013-08-13 02:04:00,
2013-08-12 22:09:00,69.3,68.1,29.93,South,180,0.0,0.0,96,0.00,SKC,,0.00,WeatherDisplay:10.37,2013-08-13 02:09:00,
2013-08-12 22:14:00,69.1,68.2,29.93,South,180,0.0,0.0,97,0.00,SKC,,0.00,WeatherDisplay:10.37,2013-08-13 02:14:00,
2013-08-12 22:19:00,69.1,68.2,29.93,South,180,0.0,0.0,97,0.00,SKC,,0.00,WeatherDisplay:10.37,2013-08-13 02:19:00,
2013-08-12 22:24:00,69.1,68.2,29.93,South,180,0.0,0.0,97,0.00,SKC,,0.00,WeatherDisplay:10.37,2013-08-13 02:24:00,
2013-08-12 22:29:00,69.1,67.9,29.93,South,180,0.0,0.0,96,0.00,SKC,,0.00,WeatherDisplay:10.37,2013-08-13 02:29:00,
2013-08-12 22:34:00,69.1,67.9,29.93,South,180,0.0,0.0,96,0.00,SKC,,0.00,WeatherDisplay:10.37,2013-08-13 02:34:00,
2013-08-12 22:39:00,69.3,68.1,29.93,South,180,0.0,0.0,96,0.00,SKC,,0.00,WeatherDisplay:10.37,2013-08-13 02:39:00,
2013-08-12 22:44:00,69.3,68.4,29.92,South,180,0.0,0.0,97,0.00,SKC,,0.00,WeatherDisplay:10.37,2013-08-13 02:44:00,
2013-08-12 22:49:00,69.1,68.5,29.92,South,180,0.0,0.0,98,0.00,SKC,,0.00,WeatherDisplay:10.37,2013-08-13 02:49:00,
2013-08-12 22:54:00,69.1,68.5,29.92,South,180,0.0,0.0,98,0.00,SKC,,0.00,WeatherDisplay:10.37,2013-08-13 02:54:00,
2013-08-12 22:59:00,69.1,68.2,29.92,South,180,0.0,0.0,97,0.00,SKC,,0.00,WeatherDisplay:10.37,2013-08-13 02:59:00,
2013-08-12 23:04:00,69.1,68.2,29.92,South,180,0.0,0.0,97,0.00,SKC,,0.00,WeatherDisplay:10.37,2013-08-13 03:04:00,
2013-08-12 23:09:00,69.1,68.2,29.91,South,180,0.0,0.0,97,0.00,SKC,,0.00,WeatherDisplay:10.37,2013-08-13 03:09:00,
2013-08-12 23:14:00,69.1,68.2,29.91,South,180,0.0,0.0,97,0.00,SKC,,0.00,WeatherDisplay:10.37,2013-08-13 03:14:00,
2013-08-12 23:19:00,69.1,68.2,29.90,South,180,0.0,0.0,97,0.00,SKC,,0.00,WeatherDisplay:10.37,2013-08-13 03:19:00,
2013-08-12 23:24:00,68.9,68.0,29.90,South,180,0.0,0.0,97,0.00,SKC,,0.00,WeatherDisplay:10.37,2013-08-13 03:24:00,
2013-08-12 23:29:00,68.7,67.8,29.91,South,180,0.0,0.0,97,0.00,SKC,,0.00,WeatherDisplay:10.37,2013-08-13 03:29:00,
2013-08-12 23:34:00,68.7,67.8,29.91,South,180,0.0,0.0,97,0.00,SKC,,0.00,WeatherDisplay:10.37,2013-08-13 03:34:00,
2013-08-12 23:39:00,68.7,67.8,29.91,South,180,0.0,0.0,97,0.00,SKC,,0.00,WeatherDisplay:10.37,2013-08-13 03:39:00,
2013-08-12 23:44:00,68.5,67.6,29.90,South,180,0.0,0.0,97,0.00,SKC,,0.00,WeatherDisplay:10.37,2013-08-13 03:44:00,
2013-08-12 23:53:00,68.4,67.8,29.90,South,180,0.0,0.0,98,0.00,SKC,,0.00,WeatherDisplay:10.37,2013-08-13 03:53:00,
2013-08-12 23:58:00,68.2,67.6,29.90,South,180,0.0,0.0,98,0.00,SKC,,0.00,WeatherDisplay:10.37,2013-08-13 03:58:00,